Time;durP1;ratioP1;P1;durP2;ratioP2;P2;SDS_P1;SDS_P2;PMS_P1;PMS_P2;Temp;Humidity;BMP_temperature;BMP_pressure;BME280_temperature;BME280_humidity;BME280_pressure;Samples;Min_cycle;Max_cycle;Signal;HPM_P1;HPM_P2
2022/08/19 00:00:45;;;;;;;16.57;13.70;;;19.20;99.90;;;;;;5023878;28;20215;-81
2022/08/19 00:03:13;;;;;;;18.25;13.50;;;19.20;99.90;;;;;;5027385;28;21037;-81
2022/08/19 00:05:42;;;;;;;15.43;13.70;;;19.10;99.90;;;;;;5025693;28;20232;-82
2022/08/19 00:08:08;;;;;;;18.90;13.20;;;19.10;99.90;;;;;;5009933;28;20248;-81
2022/08/19 00:10:35;;;;;;;14.90;12.73;;;19.10;99.90;;;;;;5028697;28;20236;-81
2022/08/19 00:13:02;;;;;;;17.43;14.00;;;19.00;99.90;;;;;;5031810;28;20226;-82
2022/08/19 00:15:29;;;;;;;18.33;14.70;;;19.00;99.90;;;;;;5009072;28;20224;-82
2022/08/19 00:17:55;;;;;;;17.33;14.17;;;19.00;99.90;;;;;;5030970;28;20316;-82
2022/08/19 00:20:23;;;;;;;17.57;14.67;;;18.90;99.90;;;;;;5031193;28;20220;-82
2022/08/19 00:22:51;;;;;;;17.97;13.87;;;18.90;99.90;;;;;;5029276;28;20239;-83
2022/08/19 00:25:18;;;;;;;20.33;15.37;;;18.90;99.90;;;;;;5007775;28;20770;-82
2022/08/19 00:27:45;;;;;;;21.23;16.07;;;18.80;99.90;;;;;;5023504;28;20222;-81
2022/08/19 00:30:12;;;;;;;18.80;15.40;;;18.80;99.90;;;;;;5003151;28;20221;-81
2022/08/19 00:32:39;;;;;;;24.60;18.50;;;18.80;99.90;;;;;;5027133;28;20228;-80
2022/08/19 00:35:07;;;;;;;25.83;19.63;;;18.80;99.90;;;;;;5020516;28;20252;-81
2022/08/19 00:37:36;;;;;;;23.70;18.23;;;18.70;99.90;;;;;;5026124;28;20226;-81
2022/08/19 00:40:05;;;;;;;27.53;19.97;;;18.80;99.90;;;;;;5008281;28;20292;-80
2022/08/19 00:42:32;;;;;;;24.57;18.37;;;18.80;99.90;;;;;;5022357;28;20724;-80
2022/08/19 00:44:59;;;;;;;23.27;18.40;;;18.80;99.90;;;;;;5022241;28;20303;-81
2022/08/19 00:47:26;;;;;;;22.73;18.20;;;18.80;99.90;;;;;;5021505;28;20227;-81
2022/08/19 00:49:56;;;;;;;27.10;19.10;;;18.80;99.90;;;;;;5006090;28;20819;-80
2022/08/19 00:52:26;;;;;;;23.93;18.57;;;18.80;99.90;;;;;;5019402;28;20762;-80
2022/08/19 00:54:55;;;;;;;23.70;18.27;;;18.80;99.90;;;;;;5021914;28;20234;-82
2022/08/19 00:57:28;;;;;;;27.00;20.37;;;18.80;99.90;;;;;;5024430;28;20314;-82
2022/08/19 00:59:57;;;;;;;27.40;18.80;;;18.80;99.90;;;;;;5002241;28;21023;-82
2022/08/19 01:02:25;;;;;;;27.43;18.87;;;18.80;99.90;;;;;;5006124;28;20236;-82
2022/08/19 01:04:52;;;;;;;26.73;17.97;;;18.80;99.90;;;;;;5024501;28;20220;-81
2022/08/19 01:07:19;;;;;;;29.20;19.83;;;18.80;99.90;;;;;;5001704;28;20250;-81
2022/08/19 01:09:46;;;;;;;26.73;18.30;;;18.80;99.90;;;;;;5023130;28;20228;-81
2022/08/19 01:12:14;;;;;;;22.83;18.40;;;18.80;99.90;;;;;;5021727;28;20899;-82
2022/08/19 01:14:41;;;;;;;25.85;18.48;;;18.80;99.90;;;;;;5001875;28;20232;-81
2022/08/19 01:17:09;;;;;;;27.50;17.87;;;18.70;99.90;;;;;;5005239;28;20254;-81
2022/08/19 01:19:38;;;;;;;23.53;18.67;;;18.70;99.90;;;;;;5022141;28;20233;-80
2022/08/19 01:22:11;;;;;;;24.77;18.07;;;18.70;99.90;;;;;;5030617;28;20238;-81
2022/08/19 01:24:39;;;;;;;23.87;17.17;;;18.70;99.90;;;;;;5005543;28;20790;-81
2022/08/19 01:27:07;;;;;;;25.27;18.83;;;18.70;99.90;;;;;;5007905;28;20233;-81
2022/08/19 01:29:34;;;;;;;24.53;17.67;;;18.80;99.90;;;;;;5006428;28;20231;-81
2022/08/19 01:32:02;;;;;;;29.10;19.50;;;18.70;99.90;;;;;;5010186;28;20616;-81
2022/08/19 01:34:29;;;;;;;25.80;18.80;;;18.80;99.90;;;;;;5006881;28;20251;-81
2022/08/19 01:36:55;;;;;;;26.70;19.43;;;18.80;99.90;;;;;;5022273;28;20773;-81
2022/08/19 01:39:25;;;;;;;28.60;19.30;;;18.80;99.90;;;;;;5020822;28;20224;-81
2022/08/19 01:41:54;;;;;;;28.02;19.23;;;18.80;99.90;;;;;;5020223;28;20232;-82
2022/08/19 01:44:23;;;;;;;24.73;19.10;;;18.70;99.90;;;;;;4997525;28;20232;-81
2022/08/19 01:46:51;;;;;;;27.90;20.53;;;18.70;99.90;;;;;;5021684;28;20228;-82
2022/08/19 01:49:22;;;;;;;28.50;19.77;;;18.70;99.90;;;;;;5024587;28;20231;-81
2022/08/19 01:51:50;;;;;;;26.07;18.50;;;18.70;99.90;;;;;;5004267;28;20718;-80
2022/08/19 01:54:21;;;;;;;26.30;19.37;;;18.80;99.90;;;;;;5018296;28;20905;-81
2022/08/19 01:56:48;;;;;;;26.87;19.03;;;18.80;99.90;;;;;;5005882;28;20255;-80
2022/08/19 01:59:20;;;;;;;26.13;19.27;;;18.70;99.90;;;;;;5016798;28;20231;-81
2022/08/19 02:01:47;;;;;;;27.63;19.23;;;18.70;99.90;;;;;;5022445;28;20247;-80
2022/08/19 02:04:14;;;;;;;29.23;17.90;;;18.70;99.90;;;;;;5027947;28;20938;-81
2022/08/19 02:06:41;;;;;;;26.43;19.37;;;18.70;99.90;;;;;;5027656;28;20213;-81
2022/08/19 02:09:08;;;;;;;27.37;18.87;;;18.70;99.90;;;;;;5023447;28;20236;-80
2022/08/19 02:11:37;;;;;;;30.83;19.97;;;18.70;99.90;;;;;;5030173;28;20232;-80
2022/08/19 02:14:08;;;;;;;23.30;18.23;;;18.70;99.90;;;;;;5023002;28;20698;-81
2022/08/19 02:16:38;;;;;;;27.37;19.80;;;18.70;99.90;;;;;;5029134;28;20259;-82
2022/08/19 02:19:05;;;;;;;27.20;20.17;;;18.70;99.90;;;;;;5007675;28;20318;-80
2022/08/19 02:21:33;;;;;;;27.50;19.80;;;18.60;99.90;;;;;;5030328;28;20228;-81
2022/08/19 02:24:00;;;;;;;29.40;19.27;;;18.60;99.90;;;;;;5023462;28;20311;-81
2022/08/19 02:26:27;;;;;;;29.07;22.17;;;18.60;99.90;;;;;;5026796;28;20520;-81
2022/08/19 02:28:55;;;;;;;27.83;20.73;;;18.50;99.90;;;;;;5005487;28;20235;-81
2022/08/19 02:31:23;;;;;;;28.13;19.77;;;18.50;99.90;;;;;;5002859;28;20240;-82
2022/08/19 02:33:51;;;;;;;28.00;19.43;;;18.50;99.90;;;;;;5025194;28;20225;-82
2022/08/19 02:36:19;;;;;;;26.97;20.00;;;18.50;99.90;;;;;;5004767;28;20232;-82
2022/08/19 02:38:45;;;;;;;26.63;18.73;;;18.60;99.90;;;;;;5024609;28;20239;-82
2022/08/19 02:41:16;;;;;;;28.87;19.57;;;18.50;99.90;;;;;;5028533;28;20243;-83
2022/08/19 02:43:43;;;;;;;28.27;19.63;;;18.40;99.90;;;;;;5025624;28;20228;-82
2022/08/19 02:46:17;;;;;;;30.03;20.00;;;18.40;99.90;;;;;;5010865;28;20235;-82
2022/08/19 02:48:44;;;;;;;29.07;19.17;;;18.40;99.90;;;;;;5029547;28;20719;-83
2022/08/19 02:51:17;;;;;;;31.30;20.33;;;18.40;99.90;;;;;;5009915;28;20217;-81
2022/08/19 02:53:44;;;;;;;30.73;20.17;;;18.40;99.90;;;;;;5029626;28;20864;-82
2022/08/19 02:56:10;;;;;;;30.10;19.20;;;18.40;99.90;;;;;;5025388;28;20224;-80
2022/08/19 02:58:37;;;;;;;29.50;19.97;;;18.40;99.90;;;;;;5015318;28;20277;-81
2022/08/19 03:01:04;;;;;;;29.60;19.60;;;18.40;99.90;;;;;;5011406;28;20219;-81
2022/08/19 03:03:31;;;;;;;29.33;20.30;;;18.30;99.90;;;;;;5010778;28;20241;-81
2022/08/19 03:06:06;;;;;;;28.17;19.40;;;18.40;99.90;;;;;;5010456;28;20765;-83
2022/08/19 03:08:34;;;;;;;30.37;19.73;;;18.40;99.90;;;;;;5027005;28;20219;-81
2022/08/19 03:11:01;;;;;;;31.30;19.20;;;18.40;99.90;;;;;;5012067;28;20220;-81
2022/08/19 03:13:30;;;;;;;30.03;20.03;;;18.30;99.90;;;;;;5031703;28;20237;-81
2022/08/19 03:15:57;;;;;;;26.97;18.87;;;18.30;99.90;;;;;;5023686;28;20245;-81
2022/08/19 03:18:24;;;;;;;28.67;19.13;;;18.30;99.90;;;;;;5028339;28;20239;-81
2022/08/19 03:20:54;;;;;;;28.27;19.70;;;18.40;99.90;;;;;;5030228;28;20279;-81
2022/08/19 03:23:21;;;;;;;30.13;20.60;;;18.30;99.90;;;;;;5004397;28;20219;-81
2022/08/19 03:25:51;;;;;;;32.13;21.60;;;18.30;99.90;;;;;;5026244;28;20708;-78
2022/08/19 03:28:19;;;;;;;37.77;21.83;;;18.30;99.90;;;;;;5026684;28;20723;-79
2022/08/19 03:30:57;;;;;;;36.27;21.53;;;18.30;99.90;;;;;;5010067;28;20228;-79
2022/08/19 03:33:24;;;;;;;40.40;23.43;;;18.40;99.90;;;;;;5023887;28;20228;-79
2022/08/19 03:36:01;;;;;;;38.40;23.60;;;18.30;99.90;;;;;;5022246;28;20238;-77
2022/08/19 03:38:28;;;;;;;34.47;22.13;;;18.30;99.90;;;;;;5013315;28;20662;-78
2022/08/19 03:40:56;;;;;;;35.03;21.67;;;18.40;99.90;;;;;;5020726;28;20961;-78
2022/08/19 03:43:22;;;;;;;39.03;21.33;;;18.30;99.90;;;;;;5009319;28;20228;-80
2022/08/19 03:45:50;;;;;;;36.80;22.93;;;18.30;99.90;;;;;;5022646;28;20227;-78
2022/08/19 03:48:17;;;;;;;34.13;21.13;;;18.40;99.90;;;;;;5009950;28;20237;-79
2022/08/19 03:50:44;;;;;;;37.17;23.27;;;18.30;99.90;;;;;;5027823;28;20331;-78
2022/08/19 03:53:11;;;;;;;39.33;22.60;;;18.30;99.90;;;;;;5024527;28;20262;-78
2022/08/19 03:55:40;;;;;;;36.50;22.17;;;18.30;99.90;;;;;;5016855;28;20381;-78
2022/08/19 03:58:10;;;;;;;29.47;19.73;;;18.30;99.90;;;;;;5020766;28;20709;-79
2022/08/19 04:00:37;;;;;;;31.20;19.57;;;18.30;99.90;;;;;;5022202;28;20227;-78
2022/08/19 04:03:04;;;;;;;33.30;21.73;;;18.30;99.90;;;;;;5009305;28;20591;-77
2022/08/19 04:05:31;;;;;;;32.00;20.87;;;18.30;99.90;;;;;;5003206;28;20251;-77
2022/08/19 04:07:58;;;;;;;28.67;19.83;;;18.30;99.90;;;;;;5020902;28;20219;-78
2022/08/19 04:10:25;;;;;;;30.53;19.90;;;18.30;99.90;;;;;;5024236;28;20230;-79
2022/08/19 04:12:52;;;;;;;30.40;19.60;;;18.30;99.90;;;;;;5031773;28;20232;-79
2022/08/19 04:15:20;;;;;;;34.33;19.07;;;18.30;99.90;;;;;;5018620;28;20224;-78
2022/08/19 04:17:47;;;;;;;30.70;19.73;;;18.40;99.90;;;;;;5018838;28;20291;-77
2022/08/19 04:20:14;;;;;;;28.33;18.57;;;18.40;99.90;;;;;;5025783;28;20224;-79
2022/08/19 04:22:40;;;;;;;26.93;18.13;;;18.40;99.90;;;;;;5012431;28;20231;-77
2022/08/19 04:25:08;;;;;;;27.47;19.07;;;18.40;99.90;;;;;;5016690;28;20265;-78
2022/08/19 04:27:36;;;;;;;29.33;19.00;;;18.40;99.90;;;;;;5004823;28;20225;-77
2022/08/19 04:30:04;;;;;;;24.87;18.67;;;18.50;99.90;;;;;;5025578;28;20212;-79
2022/08/19 04:32:32;;;;;;;27.27;19.20;;;18.40;99.90;;;;;;5024776;28;20231;-78
2022/08/19 04:34:59;;;;;;;26.63;19.90;;;18.40;99.90;;;;;;5009000;28;20216;-77
2022/08/19 04:37:27;;;;;;;29.80;18.53;;;18.50;99.90;;;;;;5010969;28;20797;-78
2022/08/19 04:42:41;;;;;;;25.00;17.63;;;18.40;99.90;;;;;;5001721;28;20386;-77
2022/08/19 04:45:10;;;;;;;26.67;18.40;;;18.40;99.90;;;;;;5026036;28;20324;-77
2022/08/19 04:47:39;;;;;;;27.80;19.40;;;18.50;99.90;;;;;;5020389;28;20227;-78
2022/08/19 04:50:07;;;;;;;24.40;18.97;;;18.50;99.90;;;;;;5022546;28;20227;-77
2022/08/19 04:52:34;;;;;;;28.77;18.10;;;18.50;99.90;;;;;;5023608;28;20248;-77
2022/08/19 04:55:01;;;;;;;27.60;19.10;;;18.50;99.90;;;;;;5004157;28;20229;-77
2022/08/19 04:57:28;;;;;;;32.60;20.90;;;18.50;99.90;;;;;;5022340;28;20315;-77
2022/08/19 04:59:55;;;;;;;30.87;19.87;;;18.50;99.90;;;;;;5000999;28;20221;-77
2022/08/19 05:02:22;;;;;;;34.70;21.27;;;18.50;99.90;;;;;;5002686;28;21003;-77
2022/08/19 05:04:50;;;;;;;31.33;20.87;;;18.50;99.90;;;;;;5014180;28;20232;-77
2022/08/19 05:07:17;;;;;;;31.53;21.30;;;18.50;99.90;;;;;;5005250;28;20278;-77
2022/08/19 05:09:44;;;;;;;34.13;20.90;;;18.50;99.90;;;;;;5023339;28;20686;-77
2022/08/19 05:12:10;;;;;;;32.37;21.17;;;18.50;99.90;;;;;;5005679;28;20227;-77
2022/08/19 05:14:37;;;;;;;29.33;19.67;;;18.50;99.90;;;;;;5024178;28;20228;-78
2022/08/19 05:17:04;;;;;;;34.07;21.63;;;18.50;99.90;;;;;;5024215;28;20239;-77
2022/08/19 05:25:12;;;;;;;27.60;19.23;;;18.50;99.90;;;;;;4954405;28;20225;-77
2022/08/19 05:27:40;;;;;;;32.03;19.07;;;18.50;99.90;;;;;;5003477;28;20216;-78
2022/08/19 05:30:10;;;;;;;28.93;18.77;;;18.50;99.90;;;;;;5020899;28;20285;-77
2022/08/19 05:32:39;;;;;;;28.27;20.37;;;18.40;99.90;;;;;;5023278;28;20224;-77
2022/08/19 05:35:07;;;;;;;30.37;19.97;;;18.50;99.90;;;;;;5022593;28;20719;-78
2022/08/19 05:37:39;;;;;;;30.97;20.70;;;18.40;99.90;;;;;;5023517;28;20232;-78
2022/08/19 05:40:07;;;;;;;42.20;23.00;;;18.40;99.90;;;;;;5022646;28;20883;-78
2022/08/19 05:42:34;;;;;;;31.83;20.00;;;18.40;99.90;;;;;;5005460;28;20221;-78
2022/08/19 05:45:01;;;;;;;35.70;20.57;;;18.40;99.90;;;;;;5022481;28;20235;-78
2022/08/19 05:47:30;;;;;;;33.63;20.63;;;18.40;99.90;;;;;;5022639;28;20227;-78
2022/08/19 05:49:57;;;;;;;34.43;20.50;;;18.40;99.90;;;;;;4997224;28;20223;-78
2022/08/19 05:52:24;;;;;;;34.77;20.20;;;18.40;99.90;;;;;;5006082;28;20235;-78
2022/08/19 05:54:54;;;;;;;32.63;21.30;;;18.40;99.90;;;;;;5021956;28;20247;-77
2022/08/19 05:57:22;;;;;;;26.73;18.93;;;18.40;99.90;;;;;;5022832;28;20313;-78
2022/08/19 05:59:51;;;;;;;28.93;18.53;;;18.40;99.90;;;;;;5005180;28;20303;-78
2022/08/19 06:02:17;;;;;;;32.40;20.30;;;18.30;99.90;;;;;;5017154;28;20641;-78
2022/08/19 06:04:44;;;;;;;30.60;18.80;;;18.30;99.90;;;;;;5003855;28;20255;-78
2022/08/19 06:07:12;;;;;;;27.93;18.87;;;18.30;99.90;;;;;;5003501;28;20247;-79
2022/08/19 06:09:39;;;;;;;30.50;19.03;;;18.30;99.90;;;;;;5002241;28;20256;-79
2022/08/19 06:12:08;;;;;;;35.43;20.17;;;18.30;99.90;;;;;;4984601;28;20235;-78
2022/08/19 06:14:36;;;;;;;31.43;20.27;;;18.30;99.90;;;;;;5003384;28;20221;-78
2022/08/19 06:17:05;;;;;;;27.87;18.50;;;18.30;99.90;;;;;;5004126;28;20870;-78
2022/08/19 06:19:32;;;;;;;26.67;18.00;;;18.40;99.90;;;;;;5003820;28;20233;-78
2022/08/19 06:22:01;;;;;;;26.00;17.40;;;18.40;99.90;;;;;;5003888;28;20246;-78
2022/08/19 06:24:29;;;;;;;25.60;18.03;;;18.40;99.90;;;;;;4984945;28;20239;-78
2022/08/19 06:26:58;;;;;;;26.97;17.87;;;18.50;99.90;;;;;;4975020;28;20244;-77
2022/08/19 06:29:28;;;;;;;25.90;17.70;;;18.50;99.90;;;;;;5001901;28;20229;-78
2022/08/19 06:31:57;;;;;;;27.77;18.90;;;18.50;99.90;;;;;;5014295;28;20229;-78
2022/08/19 06:34:28;;;;;;;28.10;18.03;;;18.60;99.90;;;;;;5022305;28;21483;-78
2022/08/19 06:36:55;;;;;;;24.50;17.93;;;18.60;99.90;;;;;;5005490;28;20700;-77
2022/08/19 06:39:24;;;;;;;27.20;19.10;;;18.70;99.90;;;;;;5014961;28;20229;-78
2022/08/19 06:41:53;;;;;;;30.87;19.97;;;18.70;99.90;;;;;;5016940;28;20286;-78
2022/08/19 06:44:25;;;;;;;28.93;19.93;;;18.70;99.90;;;;;;5014983;28;20217;-79
2022/08/19 06:46:53;;;;;;;30.40;19.20;;;18.70;99.90;;;;;;5011506;28;20236;-78
2022/08/19 06:49:20;;;;;;;26.90;19.17;;;18.70;99.90;;;;;;5026164;28;20228;-77
2022/08/19 06:51:49;;;;;;;30.10;20.77;;;18.70;99.90;;;;;;5026690;28;20227;-77
2022/08/19 06:54:17;;;;;;;26.60;18.90;;;18.70;99.90;;;;;;5013558;28;20229;-78
2022/08/19 06:56:45;;;;;;;30.13;19.63;;;18.80;99.90;;;;;;5020839;28;20319;-78
2022/08/19 06:59:14;;;;;;;30.53;18.97;;;18.80;99.90;;;;;;5010569;28;20256;-78
2022/08/19 07:01:45;;;;;;;29.13;19.70;;;18.80;99.90;;;;;;5010278;28;20232;-78
2022/08/19 07:04:15;;;;;;;27.07;18.53;;;18.80;99.90;;;;;;5026936;28;20644;-78
2022/08/19 07:06:42;;;;;;;26.47;18.47;;;18.80;99.90;;;;;;5036693;28;21063;-78
2022/08/19 07:09:10;;;;;;;32.37;19.67;;;18.80;99.90;;;;;;5024530;28;20714;-78
2022/08/19 07:11:36;;;;;;;29.17;19.60;;;18.80;99.90;;;;;;5025428;28;20224;-77
2022/08/19 07:14:06;;;;;;;29.77;19.53;;;18.90;99.90;;;;;;5006750;28;20217;-78
2022/08/19 07:16:33;;;;;;;31.07;19.20;;;18.80;99.90;;;;;;5006338;28;20260;-77
2022/08/19 07:18:59;;;;;;;30.37;19.20;;;18.80;99.90;;;;;;5018288;28;20276;-78
2022/08/19 07:21:28;;;;;;;26.97;18.73;;;18.90;99.90;;;;;;5025328;28;20236;-78
2022/08/19 07:23:57;;;;;;;29.03;19.57;;;18.90;99.90;;;;;;5024660;28;20577;-78
2022/08/19 07:26:26;;;;;;;30.03;18.50;;;19.00;99.90;;;;;;5026362;28;20232;-78
2022/08/19 07:28:54;;;;;;;29.40;19.07;;;19.00;99.90;;;;;;5027049;28;20347;-78
2022/08/19 07:31:23;;;;;;;27.60;18.23;;;19.10;99.90;;;;;;5009876;28;20225;-78
2022/08/19 07:33:52;;;;;;;28.90;17.87;;;19.10;99.90;;;;;;5006799;28;20817;-78
2022/08/19 07:36:21;;;;;;;24.07;17.47;;;19.20;99.90;;;;;;5020677;28;20229;-78
2022/08/19 07:38:53;;;;;;;25.20;17.30;;;19.30;99.90;;;;;;5023046;28;20787;-78
2022/08/19 07:41:22;;;;;;;26.33;17.77;;;19.40;99.90;;;;;;5019870;28;20639;-78
2022/08/19 07:43:49;;;;;;;25.63;17.80;;;19.40;99.90;;;;;;5016719;28;20224;-77
2022/08/19 07:46:17;;;;;;;24.70;17.43;;;19.40;99.90;;;;;;5025200;28;20728;-78
2022/08/19 07:48:49;;;;;;;21.47;16.17;;;19.50;99.90;;;;;;5006573;28;20217;-78
2022/08/19 07:51:18;;;;;;;23.00;16.73;;;19.50;99.90;;;;;;5004999;28;20264;-78
2022/08/19 07:53:45;;;;;;;29.10;19.33;;;19.50;99.90;;;;;;4997299;28;20260;-78
2022/08/19 07:56:14;;;;;;;29.30;18.37;;;19.50;99.90;;;;;;5006496;28;20229;-78
2022/08/19 07:58:44;;;;;;;28.67;17.63;;;19.60;99.90;;;;;;5023976;28;20788;-78
2022/08/19 08:01:13;;;;;;;27.10;18.30;;;19.60;99.90;;;;;;5024791;28;20258;-78
2022/08/19 08:09:15;;;;;;;27.90;17.50;;;19.70;99.90;;;;;;5014287;28;20240;-81
2022/08/19 08:11:49;;;;;;;27.33;19.27;;;19.80;99.90;;;;;;5013114;28;20229;-80
2022/08/19 08:14:17;;;;;;;26.60;18.90;;;19.80;99.90;;;;;;5002395;28;20279;-78
2022/08/19 08:16:45;;;;;;;30.23;19.20;;;19.80;99.90;;;;;;5023551;28;20316;-77
2022/08/19 08:19:14;;;;;;;31.33;19.57;;;19.80;99.90;;;;;;5026741;28;20252;-79
2022/08/19 08:21:42;;;;;;;26.20;17.73;;;19.80;99.90;;;;;;5009859;28;20229;-80
2022/08/19 08:24:09;;;;;;;30.13;19.13;;;19.80;99.90;;;;;;5008294;28;20786;-80
2022/08/19 08:26:36;;;;;;;29.10;18.95;;;19.80;99.90;;;;;;5025494;28;20239;-80
2022/08/19 08:29:04;;;;;;;30.83;18.57;;;19.80;99.90;;;;;;4999093;28;20304;-80
2022/08/19 08:31:33;;;;;;;27.13;18.95;;;19.90;99.90;;;;;;5022936;28;20232;-81
2022/08/19 08:34:00;;;;;;;32.30;19.63;;;19.90;99.90;;;;;;5015082;28;20224;-80
2022/08/19 08:36:27;;;;;;;29.20;18.90;;;19.90;99.90;;;;;;5007784;28;20688;-80
2022/08/19 08:38:54;;;;;;;31.57;21.00;;;19.90;99.90;;;;;;5022522;28;20935;-78
2022/08/19 08:41:29;;;;;;;32.57;19.60;;;19.90;99.90;;;;;;5026864;28;20229;-78
2022/08/19 08:43:59;;;;;;;29.52;18.88;;;19.90;99.90;;;;;;5006814;28;20355;-80
2022/08/19 08:46:31;;;;;;;29.60;18.23;;;19.90;99.90;;;;;;5023503;28;20885;-79
2022/08/19 08:49:04;;;;;;;29.83;20.27;;;20.00;99.90;;;;;;5005589;28;20221;-80
2022/08/19 08:51:35;;;;;;;27.10;18.35;;;20.00;99.90;;;;;;4998012;28;20221;-82
2022/08/19 08:54:03;;;;;;;32.42;21.02;;;20.00;99.90;;;;;;5021935;28;20231;-79
2022/08/19 08:56:30;;;;;;;33.75;21.10;;;20.00;99.90;;;;;;5006689;28;20322;-79
2022/08/19 08:59:07;;;;;;;32.13;20.23;;;20.10;99.90;;;;;;5023756;28;20275;-78
2022/08/19 09:01:35;;;;;;;31.20;19.73;;;20.10;99.90;;;;;;5022358;28;20220;-78
2022/08/19 09:04:06;;;;;;;28.00;19.00;;;20.10;99.90;;;;;;5020614;28;20561;-83
2022/08/19 09:06:40;;;;;;;26.40;18.17;;;20.10;99.90;;;;;;5006841;28;20792;-82
2022/08/19 09:09:15;;;;;;;28.97;17.10;;;20.10;99.90;;;;;;5002186;28;20257;-83
2022/08/19 09:11:54;;;;;;;28.07;18.97;;;20.20;99.90;;;;;;5026391;28;21029;-82
2022/08/19 09:14:34;;;;;;;24.47;17.37;;;20.20;99.90;;;;;;5021935;28;20592;-83
2022/08/19 09:17:03;;;;;;;26.25;18.00;;;20.20;99.90;;;;;;5025126;28;20228;-81
2022/08/19 09:19:32;;;;;;;26.93;17.57;;;20.20;99.90;;;;;;5027094;28;20250;-79
2022/08/19 09:22:00;;;;;;;30.92;19.88;;;20.20;99.90;;;;;;5023302;28;20245;-80
2022/08/19 09:24:27;;;;;;;28.07;18.13;;;20.20;99.90;;;;;;5019910;28;20304;-79
2022/08/19 09:26:53;;;;;;;25.93;17.97;;;20.10;99.90;;;;;;5007472;28;20228;-80
2022/08/19 09:29:21;;;;;;;27.90;17.17;;;20.10;99.90;;;;;;5007902;28;20248;-81
2022/08/19 09:31:47;;;;;;;26.10;17.20;;;20.20;99.90;;;;;;5008223;28;20236;-80
2022/08/19 09:34:16;;;;;;;25.83;16.77;;;20.20;99.90;;;;;;5013823;28;20231;-82
2022/08/19 09:36:42;;;;;;;26.15;17.30;;;20.20;99.90;;;;;;5008713;28;20296;-80
2022/08/19 09:39:09;;;;;;;25.40;16.42;;;20.30;99.90;;;;;;5025149;28;20243;-81
2022/08/19 09:41:36;;;;;;;26.15;16.98;;;20.30;99.90;;;;;;5009479;28;20220;-81
2022/08/19 09:44:03;;;;;;;26.08;17.30;;;20.40;99.90;;;;;;5016692;28;20656;-81
2022/08/19 09:46:31;;;;;;;25.50;17.17;;;20.50;99.90;;;;;;5007447;28;20225;-81
2022/08/19 09:49:00;;;;;;;26.13;18.17;;;20.50;99.90;;;;;;4993851;28;20278;-81
2022/08/19 09:51:29;;;;;;;28.60;16.87;;;20.50;99.90;;;;;;5026487;28;20315;-80
2022/08/19 09:53:59;;;;;;;22.57;16.47;;;20.50;99.90;;;;;;5024405;28;20225;-80
2022/08/19 09:56:26;;;;;;;27.08;17.67;;;20.50;99.90;;;;;;5008877;28;20238;-79
2022/08/19 09:58:53;;;;;;;24.20;16.50;;;20.60;99.90;;;;;;5024930;28;20289;-79
2022/08/19 10:01:24;;;;;;;22.70;16.60;;;20.50;99.90;;;;;;5025386;28;20238;-81
2022/08/19 10:03:53;;;;;;;24.73;16.93;;;20.50;99.90;;;;;;5001339;28;20231;-80
2022/08/19 10:06:20;;;;;;;27.10;17.40;;;20.50;99.90;;;;;;5003612;28;20239;-81
2022/08/19 10:08:49;;;;;;;32.03;18.70;;;20.50;99.90;;;;;;4991540;28;20236;-78
2022/08/19 10:11:16;;;;;;;24.53;17.90;;;20.50;99.90;;;;;;5023800;28;20220;-77
2022/08/19 10:13:44;;;;;;;27.37;18.90;;;20.50;99.90;;;;;;5022386;28;20231;-77
2022/08/19 10:16:14;;;;;;;25.33;17.13;;;20.50;99.90;;;;;;5021742;28;20235;-77
2022/08/19 10:18:44;;;;;;;26.53;17.80;;;20.40;99.90;;;;;;5006199;28;20224;-77
2022/08/19 10:21:16;;;;;;;25.60;17.17;;;20.40;99.90;;;;;;5023138;28;20235;-78
2022/08/19 10:23:45;;;;;;;25.42;17.65;;;20.40;99.90;;;;;;5026831;28;20312;-78
2022/08/19 10:26:16;;;;;;;26.35;18.15;;;20.50;99.90;;;;;;5014792;28;20732;-78
2022/08/19 10:28:43;;;;;;;26.15;17.85;;;20.50;99.90;;;;;;5023889;28;20328;-78
2022/08/19 10:31:14;;;;;;;27.60;18.57;;;20.50;99.90;;;;;;5025561;28;20225;-78
2022/08/19 10:33:41;;;;;;;30.03;18.67;;;20.50;99.90;;;;;;5029270;28;20221;-78
2022/08/19 10:36:11;;;;;;;25.75;18.05;;;20.50;99.90;;;;;;5023822;28;20236;-77
2022/08/19 10:38:38;;;;;;;27.05;18.38;;;20.60;99.90;;;;;;5029179;28;20225;-77
2022/08/19 10:41:11;;;;;;;27.93;18.17;;;20.60;99.90;;;;;;5025654;28;20247;-77
2022/08/19 10:43:40;;;;;;;24.33;18.67;;;20.60;99.90;;;;;;5026511;28;20996;-82
2022/08/19 10:46:09;;;;;;;23.38;16.58;;;20.60;99.90;;;;;;5032990;28;20905;-81
2022/08/19 10:48:36;;;;;;;27.73;18.42;;;20.70;99.90;;;;;;5031811;28;20231;-80
2022/08/19 10:53:49;;;;;;;20.55;15.07;;;20.80;99.90;;;;;;5018502;28;20295;-79
2022/08/19 10:59:02;;;;;;;24.88;17.80;;;21.00;99.90;;;;;;5017286;28;20243;-78
2022/08/19 11:01:30;;;;;;;26.95;16.45;;;21.10;99.90;;;;;;5009243;28;20240;-78
2022/08/19 11:04:04;;;;;;;21.95;15.73;;;21.20;99.90;;;;;;5008264;28;20221;-79
2022/08/19 11:06:32;;;;;;;22.75;15.07;;;21.30;99.90;;;;;;5024958;28;20325;-78
2022/08/19 11:09:01;;;;;;;24.75;16.88;;;21.30;99.90;;;;;;4996278;28;20227;-79
2022/08/19 11:11:29;;;;;;;18.90;15.00;;;21.40;99.90;;;;;;5019595;28;20256;-79
2022/08/19 11:13:55;;;;;;;19.75;14.75;;;21.40;99.90;;;;;;5020578;28;21033;-79
2022/08/19 11:16:29;;;;;;;24.65;15.75;;;21.40;99.90;;;;;;5021346;28;20221;-78
2022/08/19 11:19:02;;;;;;;22.70;15.25;;;21.50;99.90;;;;;;5006422;28;20217;-78
2022/08/19 11:21:32;;;;;;;21.48;16.52;;;21.40;99.90;;;;;;5028964;28;20220;-77
2022/08/19 11:24:00;;;;;;;21.13;15.88;;;21.50;99.90;;;;;;5028561;28;20792;-79
2022/08/19 11:26:31;;;;;;;23.48;15.68;;;21.50;99.90;;;;;;5012524;28;20228;-80
2022/08/19 11:28:58;;;;;;;23.58;16.80;;;21.50;99.90;;;;;;5012809;28;20224;-80
2022/08/19 11:31:28;;;;;;;20.35;16.10;;;21.60;99.90;;;;;;5027684;28;20258;-80
2022/08/19 11:33:57;;;;;;;19.45;15.70;;;21.70;99.90;;;;;;5023431;28;20304;-79
2022/08/19 11:36:24;;;;;;;22.05;16.10;;;21.70;99.90;;;;;;5002965;28;20233;-77
2022/08/19 11:38:50;;;;;;;23.33;15.65;;;21.70;99.90;;;;;;5022546;28;20552;-77
2022/08/19 11:41:19;;;;;;;20.83;15.77;;;21.70;99.90;;;;;;5025709;28;20236;-77
2022/08/19 11:43:48;;;;;;;20.25;15.65;;;21.70;99.90;;;;;;4997661;28;20220;-78
2022/08/19 11:46:17;;;;;;;21.55;15.73;;;21.70;99.90;;;;;;5023329;28;20762;-77
2022/08/19 11:48:45;;;;;;;22.23;15.40;;;21.70;99.90;;;;;;5024296;28;20228;-78
2022/08/19 11:51:17;;;;;;;24.40;15.75;;;21.70;99.90;;;;;;5005880;28;20244;-78
2022/08/19 11:53:45;;;;;;;19.42;14.38;;;21.70;99.90;;;;;;5023858;28;20236;-78
2022/08/19 11:56:12;;;;;;;21.02;14.35;;;21.80;99.90;;;;;;5000177;28;20236;-78
2022/08/19 11:58:41;;;;;;;24.80;15.90;;;21.90;99.90;;;;;;5022498;28;20225;-78
2022/08/19 12:01:10;;;;;;;19.98;15.18;;;21.90;99.90;;;;;;5007539;28;20233;-77
2022/08/19 12:03:38;;;;;;;20.17;15.15;;;22.00;99.90;;;;;;5011120;28;20225;-77
2022/08/19 12:06:11;;;;;;;21.15;14.45;;;22.10;99.90;;;;;;5020612;28;20213;-77
2022/08/19 12:08:38;;;;;;;19.42;13.90;;;22.20;99.90;;;;;;5021547;28;20594;-77
2022/08/19 12:11:05;;;;;;;20.85;15.77;;;22.40;99.90;;;;;;5017180;28;20235;-81
2022/08/19 12:13:32;;;;;;;22.58;15.52;;;22.50;99.90;;;;;;5027468;28;20288;-81
2022/08/19 12:15:59;;;;;;;22.63;14.50;;;22.60;99.90;;;;;;5028039;28;20223;-81
2022/08/19 12:18:26;;;;;;;19.13;13.98;;;22.60;99.90;;;;;;5005529;28;20644;-81
2022/08/19 12:20:55;;;;;;;17.65;13.27;;;22.70;99.90;;;;;;5026347;28;20232;-81
2022/08/19 12:23:23;;;;;;;19.95;15.35;;;22.80;99.90;;;;;;5017138;28;20647;-81
2022/08/19 12:25:51;;;;;;;20.63;14.18;;;22.80;99.90;;;;;;5020156;28;20662;-83
2022/08/19 12:28:19;;;;;;;16.45;13.77;;;22.80;99.90;;;;;;5024417;28;20228;-82
2022/08/19 12:30:47;;;;;;;19.38;14.00;;;22.90;99.90;;;;;;5009535;28;20223;-82
2022/08/19 12:33:14;;;;;;;18.80;13.98;;;22.90;99.90;;;;;;5022525;28;20233;-82
2022/08/19 12:35:42;;;;;;;16.48;12.45;;;22.90;99.90;;;;;;5025774;28;20237;-83
2022/08/19 12:38:10;;;;;;;17.08;13.10;;;22.90;99.90;;;;;;5031705;28;20223;-82
2022/08/19 12:40:39;;;;;;;15.88;13.50;;;23.00;99.90;;;;;;5013529;28;20275;-83
2022/08/19 12:43:07;;;;;;;13.55;11.48;;;23.00;99.90;;;;;;5025736;28;20337;-82
2022/08/19 12:45:34;;;;;;;14.85;11.75;;;23.00;99.90;;;;;;5029832;28;20229;-82
2022/08/19 12:48:01;;;;;;;15.02;11.77;;;23.00;99.90;;;;;;5014553;28;20258;-82
2022/08/19 12:50:28;;;;;;;16.15;13.25;;;23.00;99.90;;;;;;5032984;28;20220;-83
2022/08/19 12:52:54;;;;;;;14.23;12.52;;;23.00;99.90;;;;;;5006007;28;20224;-82